Maaseik, Belgium
Current Conditions -  °F | °C
As of 4:25 AM on Sunday 21 Dec 2014 (Local Time) from EHBK Reporting Station
Overcast Overcast  
Wind Chill: 33°   Ceiling: 2200
Heat Index: 39°   Visibility: 6mi
Dew Point: 37°   Wind: 9mph
Humidity: 93%   Direction: 220°SW
Pressure: 30.42"   Gusts: NA
Location:  51.1°N, 5.78°E
Report Text: EHBK 210325Z AUTO 22008KT 9999 SCT018 OVC022 04/03 Q1030
Loading
Personal Weather Stations






























Interactive Weather Map New forecast layout! Learn more

10-Day Weather Forecast

Advertisements
Track Severe Weather on mobile